Time;durP1;ratioP1;P1;durP2;ratioP2;P2;SDS_P1;SDS_P2;PMS_P1;PMS_P2;Temp;Humidity;BMP_temperature;BMP_pressure;BME280_temperature;BME280_humidity;BME280_pressure;Samples;Min_cycle;Max_cycle;Signal;HPM_P1;HPM_P2
2023/09/06 00:01:21;;;;;;;0.82;0.10;;;;;;;16.56;65.01;102159.94;5045320;28;20051;-70
2023/09/06 00:03:48;;;;;;;0.45;0.03;;;;;;;16.55;64.91;102160.84;5044034;28;20060;-70
2023/09/06 00:06:16;;;;;;;0.55;0.10;;;;;;;16.53;64.58;102167.91;5038557;28;20044;-70
2023/09/06 00:08:43;;;;;;;0.20;0.10;;;;;;;16.44;64.63;102163.69;5041477;28;20080;-70
2023/09/06 00:11:10;;;;;;;1.27;0.00;;;;;;;16.50;64.25;102176.75;5043004;28;20048;-70
2023/09/06 00:13:38;;;;;;;0.17;0.05;;;;;;;16.40;64.22;102168.19;5042932;28;20048;-70
2023/09/06 00:16:07;;;;;;;0.85;0.10;;;;;;;16.49;64.32;102187.34;5044082;28;20041;-70
2023/09/06 00:18:34;;;;;;;1.65;0.10;;;;;;;16.47;64.06;102183.88;5039348;28;20139;-70
2023/09/06 00:21:00;;;;;;;1.75;0.00;;;;;;;16.46;64.58;102185.66;5042333;28;20064;-70
2023/09/06 00:23:27;;;;;;;0.52;0.10;;;;;;;16.45;64.67;102196.22;5041202;28;20045;-70
2023/09/06 00:25:54;;;;;;;3.70;0.10;;;;;;;16.44;64.60;102197.13;5041474;28;20049;-70
2023/09/06 00:28:23;;;;;;;0.15;0.00;;;;;;;16.38;64.67;102192.84;5043706;28;20051;-70
2023/09/06 00:30:52;;;;;;;0.20;0.00;;;;;;;16.40;64.70;102206.88;5042655;28;20048;-71
2023/09/06 00:33:19;;;;;;;0.52;0.10;;;;;;;16.37;65.12;102210.44;5042565;28;20043;-70
2023/09/06 00:35:47;;;;;;;0.00;0.00;;;;;;;16.37;65.05;102209.56;5045208;28;20071;-70
2023/09/06 00:38:15;;;;;;;1.55;0.00;;;;;;;16.35;65.37;102212.22;5038902;28;20123;-70
2023/09/06 00:40:42;;;;;;;0.45;0.20;;;;;;;16.34;65.38;102221.03;5044422;28;20304;-70
2023/09/06 00:43:09;;;;;;;1.98;0.10;;;;;;;16.34;65.07;102225.47;5041469;28;20099;-70
2023/09/06 00:45:44;;;;;;;0.30;0.10;;;;;;;16.32;65.29;102232.50;5044405;28;20055;-70
2023/09/06 00:48:13;;;;;;;1.17;0.10;;;;;;;16.31;65.45;102230.78;5038503;28;20048;-71
2023/09/06 00:50:43;;;;;;;0.20;0.00;;;;;;;16.29;65.52;102236.09;5042979;28;20137;-71
2023/09/06 00:53:10;;;;;;;0.10;0.00;;;;;;;16.27;65.34;102240.50;5043297;28;20497;-70
2023/09/06 00:55:38;;;;;;;0.35;0.00;;;;;;;16.26;65.18;102238.78;5043104;28;20052;-70
2023/09/06 00:58:06;;;;;;;0.10;0.10;;;;;;;16.25;65.39;102239.69;5041243;28;20095;-70
2023/09/06 01:00:33;;;;;;;1.05;0.00;;;;;;;16.25;65.50;102246.69;5043242;28;20053;-70
2023/09/06 01:03:00;;;;;;;2.67;0.00;;;;;;;16.22;65.51;102242.34;5041926;28;20132;-70
2023/09/06 01:05:31;;;;;;;0.30;0.28;;;;;;;16.21;65.49;102245.91;5041900;28;20045;-71
2023/09/06 01:08:04;;;;;;;0.55;0.10;;;;;;;16.21;65.45;102248.53;5045772;28;20053;-70
2023/09/06 01:10:31;;;;;;;2.95;0.00;;;;;;;16.19;65.60;102242.41;5036440;28;20044;-70
2023/09/06 01:12:58;;;;;;;0.50;0.10;;;;;;;16.16;65.38;102242.47;5042054;28;20060;-71
2023/09/06 01:15:25;;;;;;;0.73;0.00;;;;;;;16.16;65.61;102259.16;5040845;28;20106;-70
2023/09/06 01:17:54;;;;;;;1.33;0.05;;;;;;;16.15;65.61;102261.84;5041669;28;20044;-70
2023/09/06 01:20:33;;;;;;;2.50;0.10;;;;;;;16.14;65.33;102268.00;5043567;28;20048;-70
2023/09/06 01:23:08;;;;;;;0.45;0.00;;;;;;;16.13;65.58;102274.16;5037345;28;20446;-70
2023/09/06 01:25:36;;;;;;;1.85;0.10;;;;;;;16.11;65.04;102270.72;5041118;28;20049;-70
2023/09/06 01:28:04;;;;;;;1.23;0.10;;;;;;;16.10;65.40;102268.94;5042784;28;20469;-70
2023/09/06 01:30:31;;;;;;;1.40;0.00;;;;;;;16.08;65.14;102279.53;5041925;28;20505;-70
2023/09/06 01:32:58;;;;;;;0.28;0.00;;;;;;;16.01;65.21;102267.34;5040190;28;20048;-70
2023/09/06 01:35:25;;;;;;;0.10;0.10;;;;;;;16.06;65.13;102277.81;5037927;28;20045;-70
2023/09/06 01:37:52;;;;;;;0.28;0.10;;;;;;;16.05;65.29;102281.31;5043269;28;20045;-70
2023/09/06 01:40:19;;;;;;;0.22;0.10;;;;;;;16.04;65.52;102295.41;5033836;28;20068;-70
2023/09/06 01:42:48;;;;;;;1.55;0.10;;;;;;;16.02;65.48;102292.78;5040902;28;20111;-75
2023/09/06 01:45:17;;;;;;;0.60;0.10;;;;;;;16.00;65.71;102294.59;5045276;28;20156;-74
2023/09/06 01:47:45;;;;;;;1.17;0.10;;;;;;;15.99;65.67;102297.25;5043052;28;20420;-74
2023/09/06 01:50:12;;;;;;;1.90;0.10;;;;;;;15.97;65.71;102299.94;5043020;28;20052;-74
2023/09/06 01:52:40;;;;;;;0.40;0.05;;;;;;;15.94;65.60;102311.41;5043785;28;20049;-74
2023/09/06 01:55:08;;;;;;;1.45;0.00;;;;;;;15.89;65.82;102304.44;5042881;28;20613;-74
2023/09/06 01:57:35;;;;;;;1.42;0.00;;;;;;;15.88;65.49;102322.03;5042970;28;20045;-74
2023/09/06 02:00:18;;;;;;;0.30;0.00;;;;;;;15.87;65.40;102320.28;5040314;28;20056;-74
2023/09/06 02:02:45;;;;;;;1.38;0.10;;;;;;;15.82;65.32;102324.75;5043410;28;20080;-73
2023/09/06 02:05:12;;;;;;;1.95;0.00;;;;;;;15.79;65.38;102316.03;5041943;28;20448;-74
2023/09/06 02:07:39;;;;;;;0.17;0.00;;;;;;;15.75;65.44;102320.47;5041189;28;20053;-73
2023/09/06 02:10:08;;;;;;;0.43;0.10;;;;;;;15.73;65.41;102322.25;5043842;28;20049;-73
2023/09/06 02:12:35;;;;;;;1.60;0.10;;;;;;;15.70;65.47;102322.31;5039760;28;20049;-73
2023/09/06 02:15:05;;;;;;;0.20;0.00;;;;;;;15.67;65.65;102322.31;5039159;28;20044;-73
2023/09/06 02:17:32;;;;;;;0.52;0.10;;;;;;;15.64;65.40;102325.00;5013003;28;20764;-72
2023/09/06 02:20:07;;;;;;;1.55;0.00;;;;;;;15.62;65.68;102319.75;5038774;28;20079;-73
2023/09/06 02:22:39;;;;;;;2.78;0.00;;;;;;;15.59;65.73;102324.19;5040137;28;20071;-73
2023/09/06 02:25:07;;;;;;;0.17;0.10;;;;;;;15.55;65.61;102317.25;5040054;28;20045;-73
2023/09/06 02:27:34;;;;;;;2.63;0.13;;;;;;;15.51;65.74;102322.56;5043037;28;20056;-73
2023/09/06 02:30:06;;;;;;;0.85;0.10;;;;;;;15.45;66.13;102321.75;5039487;28;20062;-73
2023/09/06 02:32:33;;;;;;;0.00;0.00;;;;;;;15.44;66.00;102323.53;5041812;28;20056;-73
2023/09/06 02:35:01;;;;;;;0.57;0.00;;;;;;;15.41;65.96;102326.19;5040896;28;20045;-73
2023/09/06 02:37:28;;;;;;;4.45;0.30;;;;;;;15.37;66.05;102324.50;5044153;28;20557;-73
2023/09/06 02:39:55;;;;;;;0.52;0.10;;;;;;;15.36;65.99;102332.41;5046074;28;20493;-73
2023/09/06 02:42:22;;;;;;;0.98;0.10;;;;;;;15.32;65.92;102336.88;5043886;28;20144;-73
2023/09/06 02:44:50;;;;;;;1.58;0.00;;;;;;;15.28;66.05;102346.56;5042474;28;20502;-73
2023/09/06 02:47:25;;;;;;;1.60;0.05;;;;;;;15.25;65.94;102350.97;5047647;28;20103;-73
2023/09/06 02:49:55;;;;;;;0.43;0.03;;;;;;;15.19;66.09;102351.94;5038738;28;20063;-73
2023/09/06 02:52:28;;;;;;;1.00;0.05;;;;;;;15.16;66.01;102348.47;5047333;28;20049;-75
2023/09/06 02:54:57;;;;;;;3.95;0.10;;;;;;;15.12;66.00;102365.22;5018676;28;20053;-75
2023/09/06 02:57:24;;;;;;;1.88;0.10;;;;;;;15.07;66.02;102368.75;5044872;28;20298;-74
2023/09/06 02:59:51;;;;;;;0.52;0.10;;;;;;;15.03;66.04;102372.31;5048188;28;20051;-74
2023/09/06 03:02:22;;;;;;;3.80;0.10;;;;;;;14.99;66.09;102375.84;5044156;28;20085;-74
2023/09/06 03:04:54;;;;;;;0.00;0.00;;;;;;;14.95;66.20;102371.53;5046949;28;20049;-74
2023/09/06 03:07:21;;;;;;;6.68;1.00;;;;;;;14.90;66.14;102375.09;5040953;28;20105;-75
2023/09/06 03:09:50;;;;;;;2.33;0.15;;;;;;;14.87;66.42;102375.13;5046597;28;20414;-74
2023/09/06 03:12:17;;;;;;;0.95;0.10;;;;;;;14.82;66.51;102381.28;5044695;28;20070;-73
2023/09/06 03:14:47;;;;;;;0.65;0.10;;;;;;;14.81;66.50;102382.19;5042932;28;20210;-73
2023/09/06 03:17:18;;;;;;;1.95;0.00;;;;;;;14.76;66.63;102384.00;5042023;28;20049;-73
2023/09/06 03:19:48;;;;;;;0.77;0.10;;;;;;;14.74;66.68;102375.28;5044035;28;20405;-73
2023/09/06 03:22:15;;;;;;;0.70;0.10;;;;;;;14.70;66.71;102383.19;5045323;28;20477;-73
2023/09/06 03:24:43;;;;;;;4.72;0.15;;;;;;;14.69;66.89;102386.72;5044951;28;20800;-73
2023/09/06 03:27:15;;;;;;;0.17;0.10;;;;;;;14.68;67.25;102395.47;5042055;28;20445;-73
2023/09/06 03:29:43;;;;;;;0.35;0.10;;;;;;;14.66;67.04;102391.97;5042080;28;20045;-73
2023/09/06 03:32:10;;;;;;;0.13;0.10;;;;;;;14.62;67.15;102402.53;5046328;28;20513;-73
2023/09/06 03:34:40;;;;;;;0.28;0.10;;;;;;;14.54;67.11;102393.88;5042489;28;20056;-72
2023/09/06 03:37:10;;;;;;;2.80;0.15;;;;;;;14.57;67.25;102407.00;5045406;28;20889;-73
2023/09/06 03:39:37;;;;;;;0.80;0.10;;;;;;;14.54;67.45;102420.19;5041553;28;20122;-73
2023/09/06 03:42:08;;;;;;;1.23;0.25;;;;;;;14.52;67.37;102426.31;5044961;28;20132;-72
2023/09/06 03:44:35;;;;;;;1.23;0.32;;;;;;;14.48;67.68;102417.53;5042017;28;20052;-73
2023/09/06 03:47:04;;;;;;;1.13;0.10;;;;;;;14.45;67.76;102414.94;5045335;28;20052;-72
2023/09/06 03:49:32;;;;;;;2.05;0.20;;;;;;;14.43;67.78;102426.34;5041957;28;20051;-72
2023/09/06 03:51:59;;;;;;;0.25;0.10;;;;;;;14.41;68.03;102434.25;5046005;28;20102;-73
2023/09/06 03:54:28;;;;;;;0.10;0.10;;;;;;;14.40;68.19;102429.91;5043034;28;20674;-73
2023/09/06 03:56:54;;;;;;;0.60;0.10;;;;;;;14.40;68.19;102429.91;5045829;28;20041;-73
2023/09/06 03:59:21;;;;;;;0.20;0.10;;;;;;;14.39;68.47;102433.41;5041793;28;20890;-73
2023/09/06 04:01:48;;;;;;;0.70;0.05;;;;;;;14.39;68.59;102442.16;5043014;28;20144;-71
2023/09/06 04:04:15;;;;;;;0.13;0.10;;;;;;;14.39;68.60;102446.53;5042640;28;20044;-71
2023/09/06 04:06:43;;;;;;;0.22;0.10;;;;;;;14.39;68.74;102441.28;5042931;28;20049;-72
2023/09/06 04:09:13;;;;;;;3.72;0.10;;;;;;;14.37;68.90;102453.56;5043422;28;20083;-71
2023/09/06 04:11:41;;;;;;;1.85;0.10;;;;;;;14.37;69.08;102448.28;5039874;28;20060;-71
2023/09/06 04:14:09;;;;;;;2.55;0.10;;;;;;;14.36;69.04;102436.06;5044473;28;20502;-71
2023/09/06 04:16:37;;;;;;;0.35;0.10;;;;;;;14.37;69.24;102451.81;5029743;28;20144;-71
2023/09/06 04:19:05;;;;;;;0.22;0.10;;;;;;;14.38;69.59;102460.56;5044207;28;20056;-71
2023/09/06 04:21:32;;;;;;;3.13;0.17;;;;;;;14.38;69.52;102460.56;5042694;28;21332;-73
2023/09/06 04:23:59;;;;;;;0.38;0.10;;;;;;;14.38;69.57;102463.22;5045159;28;20049;-70
2023/09/06 04:26:26;;;;;;;1.13;0.20;;;;;;;14.39;69.74;102464.94;5042324;28;20055;-70
2023/09/06 04:28:54;;;;;;;1.73;0.13;;;;;;;14.39;69.90;102470.19;5045236;28;20045;-70
2023/09/06 04:31:21;;;;;;;0.17;0.10;;;;;;;14.39;70.09;102481.59;5043175;28;20053;-70
2023/09/06 04:33:48;;;;;;;3.03;0.10;;;;;;;14.39;70.13;102483.34;5041603;28;20049;-70
2023/09/06 04:36:15;;;;;;;0.08;0.08;;;;;;;14.38;70.25;102479.84;5042231;28;20580;-70
2023/09/06 04:38:43;;;;;;;2.95;0.10;;;;;;;14.38;70.07;102486.88;5044895;28;20522;-70
2023/09/06 04:41:10;;;;;;;0.30;0.10;;;;;;;14.39;70.29;102501.75;5038971;28;20051;-70
2023/09/06 04:43:37;;;;;;;1.75;0.10;;;;;;;14.39;70.24;102493.88;5042190;28;20712;-70
2023/09/06 04:46:06;;;;;;;3.33;0.20;;;;;;;14.38;70.21;102498.25;5044104;28;20057;-70
2023/09/06 04:48:33;;;;;;;0.82;0.15;;;;;;;14.36;70.30;102500.00;5044721;28;20045;-70
2023/09/06 04:51:01;;;;;;;1.45;0.20;;;;;;;14.37;70.44;102512.28;5043895;28;20049;-70
2023/09/06 04:53:27;;;;;;;0.30;0.17;;;;;;;14.39;70.49;102509.63;5042581;28;20045;-70
2023/09/06 04:55:55;;;;;;;1.45;0.10;;;;;;;14.38;70.46;102505.28;5041773;28;20052;-69
2023/09/06 04:58:22;;;;;;;3.22;0.15;;;;;;;14.38;70.43;102508.78;5041058;28;20465;-70
2023/09/06 05:00:49;;;;;;;1.40;0.20;;;;;;;14.39;70.40;102512.25;5041379;28;20041;-70
2023/09/06 05:03:18;;;;;;;1.75;0.10;;;;;;;14.40;70.39;102516.66;5044107;28;20053;-69
2023/09/06 05:05:47;;;;;;;3.45;0.13;;;;;;;14.38;70.31;102514.03;5043193;28;20056;-69
2023/09/06 05:08:14;;;;;;;0.47;0.10;;;;;;;14.40;70.28;102520.16;5043119;28;20044;-70
2023/09/06 05:10:41;;;;;;;0.50;0.10;;;;;;;14.41;70.19;102518.41;5041959;28;20063;-70
2023/09/06 05:13:08;;;;;;;0.68;0.20;;;;;;;14.42;69.93;102524.53;5041605;28;20049;-73
2023/09/06 05:15:36;;;;;;;1.67;0.10;;;;;;;14.42;70.03;102522.75;5040316;28;20509;-73
2023/09/06 05:18:04;;;;;;;1.15;0.20;;;;;;;14.43;69.99;102523.63;5043728;28;20394;-74
2023/09/06 05:20:33;;;;;;;2.45;0.10;;;;;;;14.42;69.93;102529.78;5043359;28;20045;-73
2023/09/06 05:23:03;;;;;;;0.55;0.20;;;;;;;14.43;69.66;102535.03;5041488;28;20048;-73
2023/09/06 05:25:31;;;;;;;4.25;0.20;;;;;;;14.45;69.67;102535.00;5044407;28;20045;-73
2023/09/06 05:28:00;;;;;;;1.15;0.10;;;;;;;14.46;69.58;102542.00;5038819;28;20390;-73
2023/09/06 05:30:27;;;;;;;2.17;0.10;;;;;;;14.46;69.59;102547.25;5043260;28;20049;-76
2023/09/06 05:32:55;;;;;;;1.00;0.10;;;;;;;14.47;69.45;102554.28;5040735;28;20041;-73
2023/09/06 05:35:22;;;;;;;2.45;0.13;;;;;;;14.46;69.51;102558.69;5043398;28;20060;-74
2023/09/06 05:37:50;;;;;;;1.65;0.25;;;;;;;14.47;69.42;102555.16;5041631;28;20041;-73
2023/09/06 05:40:22;;;;;;;0.90;0.20;;;;;;;14.43;69.36;102557.81;5042840;28;20049;-73
2023/09/06 05:42:49;;;;;;;6.63;0.43;;;;;;;14.47;69.21;102570.06;5039111;28;20055;-73
2023/09/06 05:45:16;;;;;;;3.95;0.20;;;;;;;14.48;68.81;102577.06;5042232;28;20051;-73
2023/09/06 05:47:43;;;;;;;1.40;0.20;;;;;;;14.47;69.03;102586.72;5043402;28;20053;-72
2023/09/06 05:50:10;;;;;;;1.60;0.10;;;;;;;14.47;69.06;102586.72;5041925;28;20045;-73
2023/09/06 05:52:37;;;;;;;1.20;0.20;;;;;;;14.42;68.85;102587.63;5043010;28;20045;-73
2023/09/06 05:55:06;;;;;;;0.25;0.10;;;;;;;14.48;68.98;102600.72;5041742;28;20045;-73
2023/09/06 05:57:33;;;;;;;2.05;0.20;;;;;;;14.47;68.64;102602.50;5041176;28;20049;-72
2023/09/06 06:00:01;;;;;;;2.45;0.13;;;;;;;14.48;68.39;102598.97;5038353;28;20045;-73
2023/09/06 06:02:30;;;;;;;1.85;0.20;;;;;;;14.49;68.29;102610.38;5041565;28;20061;-75
2023/09/06 06:04:57;;;;;;;3.08;0.20;;;;;;;14.49;68.33;102606.00;5042714;28;20833;-74
2023/09/06 06:07:24;;;;;;;2.45;0.20;;;;;;;14.45;68.23;102603.38;5041758;28;20049;-73
2023/09/06 06:09:51;;;;;;;0.30;0.10;;;;;;;14.45;68.28;102608.63;5041520;28;20044;-74
2023/09/06 06:12:22;;;;;;;0.30;0.10;;;;;;;14.51;68.09;102616.50;5041448;28;20045;-73
2023/09/06 06:14:50;;;;;;;1.33;0.15;;;;;;;14.49;67.89;102610.38;5044073;28;20051;-72
2023/09/06 06:17:17;;;;;;;2.42;0.17;;;;;;;14.50;68.28;102618.25;5046374;28;20044;-73
2023/09/06 06:19:44;;;;;;;1.10;0.10;;;;;;;14.51;67.45;102622.63;5045041;28;20043;-73
2023/09/06 06:22:11;;;;;;;0.93;0.20;;;;;;;14.48;67.33;102621.78;5046592;28;20040;-69
2023/09/06 06:24:38;;;;;;;0.50;0.13;;;;;;;14.54;67.46;102633.19;5031114;28;20052;-69
2023/09/06 06:27:05;;;;;;;1.85;0.10;;;;;;;14.55;67.45;102637.53;5040209;28;20057;-69
2023/09/06 06:29:34;;;;;;;0.88;0.20;;;;;;;14.57;67.51;102630.53;5043575;28;20041;-69
2023/09/06 06:32:00;;;;;;;2.70;0.05;;;;;;;14.57;67.42;102646.31;5044913;28;20517;-70
2023/09/06 06:34:27;;;;;;;1.95;0.10;;;;;;;14.59;67.41;102643.66;5042447;28;20045;-69
2023/09/06 06:36:54;;;;;;;2.15;0.20;;;;;;;14.59;67.39;102644.53;5044235;28;20044;-69
2023/09/06 06:39:21;;;;;;;7.15;1.55;;;;;;;14.58;66.82;102649.81;5045854;28;20056;-69
2023/09/06 06:41:48;;;;;;;1.65;0.20;;;;;;;14.60;66.82;102656.81;5045574;28;20056;-73
2023/09/06 06:44:15;;;;;;;0.50;0.10;;;;;;;14.61;66.34;102655.91;5046315;28;20045;-73
2023/09/06 06:46:43;;;;;;;3.78;0.13;;;;;;;14.61;65.76;102655.91;5044139;28;20700;-73
2023/09/06 06:49:10;;;;;;;1.92;0.20;;;;;;;14.62;65.60;102659.41;5044698;28;20048;-73
2023/09/06 06:51:39;;;;;;;2.33;0.10;;;;;;;14.61;65.36;102658.56;5039120;28;20049;-74
2023/09/06 06:54:07;;;;;;;0.98;0.10;;;;;;;14.64;65.61;102662.06;5041626;28;20053;-73
2023/09/06 06:56:34;;;;;;;0.88;0.10;;;;;;;14.65;65.10;102658.53;5042732;28;20041;-73
2023/09/06 06:59:01;;;;;;;5.20;0.43;;;;;;;14.65;64.49;102658.53;5044007;28;20486;-73
2023/09/06 07:01:28;;;;;;;1.75;0.03;;;;;;;14.67;64.72;102664.66;5046973;28;20049;-73
2023/09/06 07:03:57;;;;;;;1.30;0.10;;;;;;;14.68;64.70;102662.00;5043653;28;20053;-73
2023/09/06 07:06:24;;;;;;;0.57;0.10;;;;;;;14.71;63.85;102663.75;5041373;28;20053;-73
2023/09/06 07:08:52;;;;;;;5.13;0.13;;;;;;;14.74;63.40;102658.47;5043191;28;20056;-72
2023/09/06 07:11:19;;;;;;;3.00;0.10;;;;;;;14.76;63.25;102665.47;5044320;28;20057;-73
2023/09/06 07:13:48;;;;;;;1.38;0.10;;;;;;;14.80;63.39;102663.72;5044381;28;20045;-73
2023/09/06 07:16:16;;;;;;;2.95;0.20;;;;;;;14.84;63.28;102662.81;5044244;28;20041;-73
2023/09/06 07:18:43;;;;;;;3.03;0.20;;;;;;;14.89;63.02;102673.31;5044311;28;20075;-73
2023/09/06 07:21:11;;;;;;;1.75;0.00;;;;;;;14.95;63.30;102673.28;5043355;28;20045;-75
2023/09/06 07:23:38;;;;;;;3.45;0.10;;;;;;;15.01;63.08;102670.59;5043933;28;20652;-74
2023/09/06 07:26:05;;;;;;;1.65;0.10;;;;;;;15.06;63.09;102677.59;5044112;28;20399;-73
2023/09/06 07:28:39;;;;;;;1.40;0.10;;;;;;;15.12;62.78;102678.44;5042314;28;20055;-73
2023/09/06 07:31:06;;;;;;;1.38;0.10;;;;;;;15.17;61.73;102677.50;5041510;28;20045;-73
2023/09/06 07:33:32;;;;;;;0.82;0.10;;;;;;;15.25;61.36;102678.34;5043333;28;20060;-69
2023/09/06 07:35:59;;;;;;;6.75;0.10;;;;;;;15.34;61.01;102687.91;5044611;28;20076;-70
2023/09/06 07:38:28;;;;;;;0.60;0.20;;;;;;;15.41;60.80;102689.59;5042224;28;20047;-69
2023/09/06 07:40:59;;;;;;;0.65;0.10;;;;;;;15.50;61.04;102699.19;5045506;28;20486;-69
2023/09/06 07:43:28;;;;;;;1.05;0.15;;;;;;;15.56;60.39;102693.88;5041555;28;20387;-69
2023/09/06 07:45:56;;;;;;;0.40;0.00;;;;;;;15.66;60.42;102689.41;5042087;28;20048;-69
2023/09/06 07:48:23;;;;;;;2.35;0.10;;;;;;;15.76;60.17;102691.09;5041498;28;20064;-69
2023/09/06 07:50:51;;;;;;;1.75;0.10;;;;;;;15.85;59.80;102691.00;5043452;28;20045;-69
2023/09/06 07:53:18;;;;;;;1.00;0.10;;;;;;;15.93;59.69;102699.69;5042259;28;20064;-79
2023/09/06 07:55:46;;;;;;;0.90;0.10;;;;;;;16.03;58.41;102704.91;5049478;28;20041;-78
2023/09/06 07:58:13;;;;;;;0.85;0.15;;;;;;;16.12;58.72;102707.44;5049107;28;20853;-77
2023/09/06 08:00:41;;;;;;;5.75;0.10;;;;;;;16.19;58.95;102695.91;5046690;28;20045;-78
2023/09/06 08:03:08;;;;;;;0.38;0.10;;;;;;;16.29;58.88;102702.84;5050716;28;20426;-77
2023/09/06 08:05:36;;;;;;;3.17;0.32;;;;;;;16.39;58.95;102699.22;5043432;28;20095;-77
2023/09/06 08:08:03;;;;;;;1.10;0.10;;;;;;;16.49;58.75;102704.38;5051359;28;20072;-77
2023/09/06 08:10:30;;;;;;;0.73;0.20;;;;;;;16.59;58.55;102706.88;5048905;28;20052;-78
2023/09/06 08:12:58;;;;;;;0.40;0.10;;;;;;;16.70;58.13;102719.91;5049001;28;20107;-78
2023/09/06 08:15:25;;;;;;;2.45;0.15;;;;;;;16.79;57.89;102711.94;5047499;28;20055;-78
2023/09/06 08:17:53;;;;;;;1.33;0.10;;;;;;;16.89;57.94;102709.16;5049558;28;20072;-78
2023/09/06 08:20:20;;;;;;;1.65;0.10;;;;;;;16.99;57.64;102708.09;5048302;28;20041;-79
2023/09/06 08:22:47;;;;;;;1.23;0.10;;;;;;;17.06;57.30;102702.72;5046962;28;20037;-79
2023/09/06 08:25:14;;;;;;;1.02;0.10;;;;;;;17.16;56.63;102700.84;5048026;28;20041;-76
2023/09/06 08:27:41;;;;;;;2.10;0.00;;;;;;;17.24;55.54;102711.25;5045022;28;20052;-76
2023/09/06 08:30:11;;;;;;;0.65;0.15;;;;;;;17.30;55.00;102713.81;5043635;28;20053;-75
2023/09/06 08:32:39;;;;;;;0.30;0.10;;;;;;;17.38;54.65;102708.41;5042504;28;20056;-76
2023/09/06 08:35:06;;;;;;;0.40;0.08;;;;;;;17.43;55.01;102717.13;5047352;28;20041;-75
2023/09/06 08:37:34;;;;;;;0.82;0.10;;;;;;;17.50;54.20;102718.75;5039799;28;20579;-75
2023/09/06 08:40:01;;;;;;;1.85;0.20;;;;;;;17.54;53.54;102721.34;5045147;28;20047;-76
2023/09/06 08:42:33;;;;;;;3.38;0.10;;;;;;;17.60;53.50;102725.66;5041218;28;20167;-70
2023/09/06 08:45:00;;;;;;;3.15;0.10;;;;;;;17.64;54.00;102726.47;5042108;28;20128;-70
2023/09/06 08:47:29;;;;;;;0.73;0.05;;;;;;;17.66;54.10;102736.13;5041029;28;20778;-70
2023/09/06 08:49:57;;;;;;;0.30;0.05;;;;;;;17.68;54.10;102734.34;5042568;28;20056;-70
2023/09/06 08:52:25;;;;;;;2.70;0.08;;;;;;;17.68;54.02;102728.19;5044486;28;20402;-75
2023/09/06 08:54:53;;;;;;;1.33;0.10;;;;;;;17.62;54.54;102715.06;5043115;28;20051;-77
2023/09/06 08:57:20;;;;;;;0.50;0.10;;;;;;;17.67;54.52;102722.03;5042501;28;20049;-76
2023/09/06 08:59:48;;;;;;;1.60;0.10;;;;;;;17.62;54.23;102726.50;5041560;28;20409;-76
2023/09/06 09:02:16;;;;;;;0.47;0.03;;;;;;;17.59;53.55;102731.84;5043170;28;20049;-76
2023/09/06 09:04:45;;;;;;;0.68;0.10;;;;;;;17.58;53.94;102731.88;5048263;28;20051;-83
2023/09/06 09:07:14;;;;;;;1.27;0.10;;;;;;;17.60;54.11;102732.72;5049741;28;20045;-81
2023/09/06 09:09:58;;;;;;;1.05;0.10;;;;;;;17.63;53.76;102736.16;5048266;28;20047;-86
2023/09/06 09:12:26;;;;;;;1.02;0.20;;;;;;;17.67;53.47;102734.34;5040787;28;20064;-74
2023/09/06 09:14:54;;;;;;;0.63;0.10;;;;;;;17.68;53.53;102731.69;5039862;28;20045;-74
2023/09/06 09:17:22;;;;;;;0.75;0.10;;;;;;;17.66;53.39;102730.84;5044036;28;20393;-76
2023/09/06 09:19:52;;;;;;;1.83;0.20;;;;;;;17.70;53.94;102734.28;5041646;28;20052;-74
2023/09/06 09:22:25;;;;;;;6.65;0.10;;;;;;;17.71;52.72;102746.63;5044476;28;20638;-75
2023/09/06 09:24:58;;;;;;;0.52;0.10;;;;;;;17.73;53.11;102740.41;5042183;28;20049;-75
2023/09/06 09:27:27;;;;;;;2.58;0.25;;;;;;;17.76;53.61;102736.84;5039958;28;20688;-76
2023/09/06 09:29:54;;;;;;;2.92;0.10;;;;;;;17.75;53.98;102735.97;5042337;28;20119;-76
2023/09/06 09:32:21;;;;;;;2.08;0.10;;;;;;;17.70;53.77;102727.25;5042440;28;20504;-75
2023/09/06 09:34:48;;;;;;;1.40;0.10;;;;;;;17.84;53.87;102739.38;5047035;28;20049;-75
2023/09/06 09:37:16;;;;;;;2.08;0.10;;;;;;;17.76;53.59;102721.84;5036952;28;20048;-77
2023/09/06 09:39:43;;;;;;;11.68;0.63;;;;;;;17.89;53.53;102748.09;5046065;28;20051;-74
2023/09/06 09:42:11;;;;;;;0.80;0.10;;;;;;;17.91;53.37;102748.97;5042671;28;20056;-75
2023/09/06 09:44:38;;;;;;;3.60;0.30;;;;;;;17.88;53.44;102741.09;5042112;28;20402;-74
2023/09/06 09:47:11;;;;;;;1.85;0.10;;;;;;;17.99;53.86;102755.00;5044234;28;20060;-74
2023/09/06 09:49:41;;;;;;;1.67;0.10;;;;;;;18.03;53.75;102761.94;5046733;28;20685;-76
2023/09/06 09:52:12;;;;;;;0.70;0.10;;;;;;;18.08;53.81;102759.25;5044218;28;20041;-74
2023/09/06 09:54:47;;;;;;;0.73;0.10;;;;;;;18.12;52.23;102761.78;5048390;28;20163;-75
2023/09/06 09:57:16;;;;;;;1.13;0.10;;;;;;;18.16;52.67;102755.53;5044503;28;20049;-74
2023/09/06 09:59:45;;;;;;;2.05;0.20;;;;;;;18.22;52.66;102759.00;5044767;28;20049;-74
2023/09/06 10:02:15;;;;;;;0.35;0.10;;;;;;;18.25;52.09;102751.84;5048779;28;20052;-79
2023/09/06 10:04:44;;;;;;;3.50;0.10;;;;;;;18.25;51.32;102753.63;5047554;28;20065;-77
2023/09/06 10:07:14;;;;;;;1.27;0.10;;;;;;;18.32;51.95;102757.88;5048090;28;20049;-75
2023/09/06 10:09:43;;;;;;;2.17;0.10;;;;;;;18.32;52.15;102763.19;5047888;28;20048;-76
2023/09/06 10:12:12;;;;;;;0.90;0.10;;;;;;;18.30;51.96;102750.00;5051264;28;20307;-78
2023/09/06 10:14:42;;;;;;;0.75;0.75;;;;;;;18.39;52.17;102759.53;5048958;28;20474;-78
2023/09/06 10:17:11;;;;;;;3.50;0.30;;;;;;;18.42;51.99;102764.75;5048941;28;20192;-77
2023/09/06 10:19:39;;;;;;;1.67;0.10;;;;;;;18.44;51.41;102765.56;5047790;28;20068;-78
2023/09/06 10:22:08;;;;;;;3.05;0.15;;;;;;;18.45;51.59;102771.78;5053230;28;20127;-82
2023/09/06 10:24:36;;;;;;;1.27;0.13;;;;;;;18.46;51.56;102777.00;5048395;28;20051;-83
2023/09/06 10:27:11;;;;;;;2.38;0.20;;;;;;;18.39;50.79;102764.81;5040072;28;20049;-82
2023/09/06 10:29:52;;;;;;;1.75;0.10;;;;;;;18.40;51.60;102756.84;5053192;28;20045;-81
2023/09/06 10:32:20;;;;;;;0.98;0.10;;;;;;;18.47;51.74;102768.19;5046980;28;20167;-81
2023/09/06 10:34:49;;;;;;;1.80;0.08;;;;;;;18.47;51.84;102762.91;5050099;28;20057;-82
2023/09/06 10:37:16;;;;;;;0.95;0.10;;;;;;;18.47;51.67;102762.91;5045984;28;20103;-82
2023/09/06 10:39:53;;;;;;;0.70;0.10;;;;;;;18.46;51.77;102753.19;5054107;28;20091;-82
2023/09/06 10:42:22;;;;;;;0.98;0.00;;;;;;;18.45;51.75;102754.13;5052031;28;20049;-80
2023/09/06 10:45:11;;;;;;;1.13;0.10;;;;;;;18.46;51.61;102758.50;5050174;28;20051;-82
2023/09/06 10:47:38;;;;;;;2.67;0.45;;;;;;;18.39;51.76;102743.66;5047731;28;20055;-91
2023/09/06 10:50:11;;;;;;;0.98;0.10;;;;;;;18.45;50.90;102753.25;5053971;28;20131;-88
2023/09/06 10:52:43;;;;;;;0.28;0.05;;;;;;;18.43;51.47;102746.19;5048796;28;20076;-86
2023/09/06 10:55:16;;;;;;;1.08;0.15;;;;;;;18.41;51.35;102752.41;5053787;28;20098;-83
2023/09/06 10:57:54;;;;;;;0.93;0.63;;;;;;;18.40;51.14;102756.84;5047430;28;20478;-91
2023/09/06 11:00:25;;;;;;;1.27;0.10;;;;;;;18.39;50.90;102749.81;5046638;28;20155;-82
2023/09/06 11:03:21;;;;;;;1.65;0.10;;;;;;;18.45;51.53;102761.19;5046900;28;20052;-81
2023/09/06 11:05:58;;;;;;;;;;;;;;;18.43;51.94;102756.78;5054798;28;20123;-80
2023/09/06 11:08:30;;;;;;;2.90;0.10;;;;;;;18.42;51.59;102767.41;5046733;28;19928;-86
2023/09/06 11:11:07;;;;;;;0.20;0.10;;;;;;;18.43;51.07;102771.78;5043717;28;20052;-83
2023/09/06 11:13:36;;;;;;;1.15;0.10;;;;;;;18.41;51.49;102763.00;5041976;28;20139;-74
2023/09/06 11:16:05;;;;;;;1.15;0.30;;;;;;;18.39;51.06;102760.41;5043661;28;20053;-74
2023/09/06 11:18:42;;;;;;;1.83;0.20;;;;;;;18.35;50.87;102750.75;5046491;28;20049;-75
2023/09/06 11:21:09;;;;;;;2.90;0.10;;;;;;;18.41;51.27;102766.53;5043975;28;20041;-75
2023/09/06 11:23:44;;;;;;;1.98;0.30;;;;;;;18.44;51.43;102773.50;5045098;28;20052;-74
2023/09/06 11:26:11;;;;;;;;;;;;;;;18.45;52.02;102764.69;5046192;28;21000;-77
2023/09/06 11:28:42;;;;;;;2.78;0.10;;;;;;;18.45;51.50;102769.13;5047067;28;19947;-75
2023/09/06 11:31:21;;;;;;;1.75;0.20;;;;;;;18.45;50.37;102763.84;5045760;28;20055;-73
2023/09/06 11:33:55;;;;;;;1.58;0.20;;;;;;;18.45;50.14;102766.47;5041539;28;20471;-75